createdAt,value
2022-08-16T00:01:59.861Z,100646.72
2022-08-16T00:04:30.193Z,100648.03
2022-08-16T00:06:59.086Z,100650.19
2022-08-16T00:09:28.418Z,100653.09
2022-08-16T00:11:57.785Z,100647.53
2022-08-16T00:14:33.462Z,100657.56
2022-08-16T00:17:18.533Z,100657.97
2022-08-16T00:19:53.422Z,100658.91
2022-08-16T00:22:27.982Z,100658.25
2022-08-16T00:25:00.352Z,100651.84
2022-08-16T00:27:30.770Z,100659.25
2022-08-16T00:30:19.159Z,100661.44
2022-08-16T00:32:52.228Z,100670.38
2022-08-16T00:35:30.597Z,100669.56
2022-08-16T00:38:40.743Z,100669.56
2022-08-16T00:40:57.394Z,100672.03
2022-08-16T00:43:42.725Z,100670.22
2022-08-16T00:46:33.681Z,100668.19
2022-08-16T00:49:17.304Z,100667.63
2022-08-16T00:51:54.878Z,100668.19
2022-08-16T00:54:29.765Z,100673.44
2022-08-16T00:57:04.841Z,100671.16
2022-08-16T00:59:49.309Z,100664.75
2022-08-16T01:02:39.679Z,100668.44
2022-08-16T01:05:23.900Z,100669.09
2022-08-16T01:07:53.790Z,100665.53
2022-08-16T01:10:32.002Z,100662.97
2022-08-16T01:13:12.215Z,100670.97
2022-08-16T01:15:52.880Z,100670.09
2022-08-16T01:18:38.948Z,100659.00
2022-08-16T01:21:36.237Z,100666.56
2022-08-16T01:24:53.242Z,100651.72
2022-08-16T01:27:23.973Z,100666.41
2022-08-16T01:30:20.511Z,100662.47
2022-08-16T01:33:02.705Z,100658.66
2022-08-16T01:35:47.568Z,100654.72
2022-08-16T01:38:28.519Z,100658.41
2022-08-16T01:41:04.618Z,100659.09
2022-08-16T01:43:36.158Z,100666.41
2022-08-16T01:46:29.977Z,100650.66
2022-08-16T01:49:10.287Z,100656.19
2022-08-16T01:51:43.643Z,100653.28
2022-08-16T01:54:15.489Z,100650.97
2022-08-16T01:56:47.841Z,100646.47
2022-08-16T01:59:18.876Z,100644.66
2022-08-16T02:01:59.617Z,100654.72
2022-08-16T02:04:49.372Z,100653.97
2022-08-16T02:07:24.753Z,100654.47
2022-08-16T02:09:58.796Z,100644.91
2022-08-16T02:12:43.557Z,100651.72
2022-08-16T02:15:25.173Z,100656.81
2022-08-16T02:18:01.608Z,100658.03
2022-08-16T02:20:42.446Z,100659.56
2022-08-16T02:23:12.877Z,100658.38
2022-08-16T02:25:50.791Z,100659.88
2022-08-16T02:28:26.206Z,100660.00
2022-08-16T02:30:59.549Z,100670.97
2022-08-16T02:33:43.659Z,100664.19
2022-08-16T02:36:47.605Z,100665.69
2022-08-16T02:39:12.313Z,100662.75
2022-08-16T02:41:53.187Z,100654.09
2022-08-16T02:44:27.026Z,100667.25
2022-08-16T02:46:57.961Z,100665.56
2022-08-16T02:49:58.266Z,100667.88
2022-08-16T02:52:24.667Z,100665.13
2022-08-16T02:54:55.471Z,100663.38
2022-08-16T02:57:24.612Z,100656.75
2022-08-16T03:00:03.814Z,100666.75
2022-08-16T03:02:57.282Z,100665.19
2022-08-16T03:05:31.012Z,100655.47
2022-08-16T03:08:05.194Z,100647.09
2022-08-16T03:10:59.468Z,100646.44
2022-08-16T03:13:31.525Z,100653.28
2022-08-16T03:16:38.526Z,100645.56
2022-08-16T03:19:16.503Z,100649.47
2022-08-16T03:21:51.791Z,100646.94
2022-08-16T03:24:29.919Z,100639.78
2022-08-16T03:27:10.234Z,100647.00
2022-08-16T03:29:54.531Z,100639.31
2022-08-16T03:32:24.879Z,100638.97
2022-08-16T03:34:54.822Z,100629.22
2022-08-16T03:37:23.649Z,100634.53
2022-08-16T03:39:56.359Z,100645.81
2022-08-16T03:42:28.694Z,100641.47
2022-08-16T03:45:03.809Z,100632.34
2022-08-16T03:47:36.890Z,100645.13
2022-08-16T03:50:25.389Z,100647.41
2022-08-16T03:53:05.901Z,100657.31
2022-08-16T03:55:45.193Z,100653.06
2022-08-16T03:58:18.521Z,100653.63
2022-08-16T04:00:56.946Z,100651.16
2022-08-16T04:03:50.699Z,100644.09
2022-08-16T04:06:35.546Z,100651.59
2022-08-16T04:09:07.552Z,100662.59
2022-08-16T04:11:43.069Z,100654.09
2022-08-16T04:14:32.526Z,100662.06
2022-08-16T04:17:07.364Z,100668.97
2022-08-16T04:19:45.371Z,100665.69
2022-08-16T04:22:17.399Z,100671.19
2022-08-16T04:24:54.464Z,100674.94
2022-08-16T04:27:24.446Z,100677.28
2022-08-16T04:30:03.396Z,100681.03
2022-08-16T04:32:32.275Z,100673.22
2022-08-16T04:35:08.492Z,100680.06
2022-08-16T04:37:42.238Z,100684.84
2022-08-16T04:40:21.679Z,100686.88
2022-08-16T04:42:50.633Z,100687.56
2022-08-16T04:45:36.705Z,100689.97
2022-08-16T04:48:06.570Z,100696.09
2022-08-16T04:50:37.877Z,100697.47
2022-08-16T04:53:12.008Z,100703.59
2022-08-16T04:55:40.174Z,100710.78
2022-08-16T04:58:45.325Z,100709.78
2022-08-16T05:00:58.188Z,100707.69
2022-08-16T05:03:27.222Z,100706.66
2022-08-16T05:06:04.790Z,100712.16
2022-08-16T05:08:34.542Z,100713.34
2022-08-16T05:11:08.314Z,100714.38
2022-08-16T05:13:42.326Z,100720.84
2022-08-16T05:16:20.241Z,100706.66
2022-08-16T05:18:53.035Z,100714.69
2022-08-16T05:21:24.346Z,100712.44
2022-08-16T05:24:00.362Z,100705.22
2022-08-16T05:26:32.926Z,100710.44
2022-08-16T05:29:04.835Z,100710.41
2022-08-16T05:31:35.123Z,100704.47
2022-08-16T05:34:05.601Z,100704.94
2022-08-16T05:36:54.053Z,100721.66
2022-08-16T05:39:22.677Z,100707.16
2022-08-16T05:41:53.614Z,100714.09
2022-08-16T05:44:28.651Z,100725.94
2022-08-16T05:47:00.543Z,100713.34
2022-08-16T05:49:39.906Z,100727.31
2022-08-16T05:52:13.492Z,100724.75
2022-08-16T05:54:47.440Z,100726.34
2022-08-16T05:57:17.662Z,100732.94
2022-08-16T05:59:50.594Z,100729.56
2022-08-16T06:02:33.459Z,100723.91
2022-08-16T06:05:02.889Z,100728.00
2022-08-16T06:07:34.061Z,100736.38
2022-08-16T06:10:03.345Z,100736.31
2022-08-16T06:12:32.718Z,100733.94
2022-08-16T06:15:09.656Z,100725.91
2022-08-16T06:17:43.854Z,100729.72
2022-08-16T06:20:18.442Z,100733.38
2022-08-16T06:23:03.563Z,100737.69
2022-08-16T06:25:39.013Z,100741.81
2022-08-16T06:28:17.199Z,100728.53
2022-08-16T06:31:01.423Z,100725.59
2022-08-16T06:33:30.398Z,100727.31
2022-08-16T06:36:14.215Z,100734.66
2022-08-16T06:38:52.301Z,100728.03
2022-08-16T06:41:27.443Z,100742.06
2022-08-16T06:43:57.063Z,100736.69
2022-08-16T06:46:34.337Z,100739.41
2022-08-16T06:49:05.185Z,100736.91
2022-08-16T06:51:45.857Z,100738.41
2022-08-16T06:54:19.265Z,100743.38
2022-08-16T06:56:55.721Z,100746.38
2022-08-16T06:59:25.696Z,100746.38
2022-08-16T07:01:58.035Z,100752.47
2022-08-16T07:04:32.570Z,100750.59
2022-08-16T07:07:02.960Z,100744.31
2022-08-16T07:09:35.348Z,100754.81
2022-08-16T07:12:05.971Z,100747.72
2022-08-16T07:14:35.867Z,100746.69
2022-08-16T07:17:08.121Z,100756.91
2022-08-16T07:20:29.609Z,100746.34
2022-08-16T07:22:37.070Z,100756.63
2022-08-16T07:25:16.893Z,100755.81
2022-08-16T07:27:47.127Z,100765.38
2022-08-16T07:30:38.155Z,100758.75
2022-08-16T07:33:10.653Z,100764.72
2022-08-16T07:35:49.766Z,100766.31
2022-08-16T07:38:19.769Z,100774.22
2022-08-16T07:43:44.053Z,100779.31
2022-08-16T07:46:39.344Z,100774.28
2022-08-16T07:49:18.995Z,100786.16
2022-08-16T07:51:54.531Z,100782.66
2022-08-16T07:54:39.372Z,100784.66
2022-08-16T07:57:21.138Z,100782.94
2022-08-16T08:00:18.579Z,100788.59
2022-08-16T08:02:54.802Z,100786.94
2022-08-16T08:05:35.758Z,100781.38
2022-08-16T08:08:51.731Z,100784.88
2022-08-16T08:11:10.628Z,100794.97
2022-08-16T08:13:42.987Z,100791.16
2022-08-16T08:16:30.603Z,100793.56
2022-08-16T08:19:10.585Z,100801.03
2022-08-16T08:22:01.035Z,100799.03
2022-08-16T08:24:34.996Z,100804.56
2022-08-16T08:27:09.244Z,100802.44
2022-08-16T08:30:48.815Z,100810.53
2022-08-16T08:32:51.205Z,100813.00
2022-08-16T08:35:33.393Z,100818.72
2022-08-16T08:38:06.604Z,100817.16
2022-08-16T08:40:50.362Z,100822.69
2022-08-16T08:43:27.609Z,100811.16
2022-08-16T08:45:58.954Z,100820.25
2022-08-16T08:48:35.712Z,100823.47
2022-08-16T08:51:09.117Z,100816.25
2022-08-16T08:53:40.157Z,100824.66
2022-08-16T08:56:23.529Z,100826.78
2022-08-16T09:02:06.834Z,100827.59
2022-08-16T09:05:18.940Z,100827.56
2022-08-16T09:13:48.409Z,100822.72
2022-08-16T09:17:01.384Z,100828.25
2022-08-16T09:19:32.328Z,100826.75
2022-08-16T09:22:19.739Z,100832.28
2022-08-16T09:25:00.714Z,100837.88
2022-08-16T09:30:45.014Z,100842.41
2022-08-16T09:33:19.722Z,100848.81
2022-08-16T09:35:53.855Z,100847.38
2022-08-16T09:38:32.507Z,100857.09
2022-08-16T09:41:05.757Z,100865.75
2022-08-16T09:43:59.904Z,100864.19
2022-08-16T09:46:48.377Z,100850.75
2022-08-16T09:49:23.845Z,100855.84
2022-08-16T09:55:00.137Z,100858.34
2022-08-16T09:57:34.351Z,100874.81
2022-08-16T10:00:44.188Z,100878.88
2022-08-16T10:03:14.939Z,100870.53
2022-08-16T10:05:46.477Z,100867.94
2022-08-16T10:08:26.944Z,100874.31
2022-08-16T10:11:24.871Z,100877.56
2022-08-16T10:13:54.813Z,100876.09
2022-08-16T10:22:17.479Z,100866.41
2022-08-16T10:38:06.639Z,100863.47
2022-08-16T10:41:27.034Z,100870.72
2022-08-16T10:52:01.360Z,100873.88
2022-08-16T11:17:10.758Z,100892.19
2022-08-16T11:23:15.837Z,100893.22
2022-08-16T11:41:26.002Z,100919.63
2022-08-16T11:54:05.056Z,100919.13
2022-08-16T11:57:09.343Z,100922.78
2022-08-16T12:00:00.819Z,100923.31
2022-08-16T12:03:48.868Z,100942.66
2022-08-16T12:06:25.401Z,100932.50
2022-08-16T12:09:03.555Z,100933.72
2022-08-16T12:11:37.956Z,100932.88
2022-08-16T12:14:11.787Z,100935.75
2022-08-16T12:16:48.603Z,100933.78
2022-08-16T12:19:35.604Z,100933.59
2022-08-16T12:22:19.772Z,100920.25
2022-08-16T12:24:52.103Z,100929.66
2022-08-16T12:27:25.385Z,100927.47
2022-08-16T12:29:58.536Z,100925.78
2022-08-16T12:32:42.391Z,100928.53
2022-08-16T12:35:20.683Z,100930.63
2022-08-16T12:38:35.787Z,100924.69
2022-08-16T12:41:01.706Z,100916.78
2022-08-16T12:43:45.357Z,100921.19
2022-08-16T12:46:17.901Z,100928.94
2022-08-16T12:49:00.532Z,100931.53
2022-08-16T12:51:59.804Z,100930.63
2022-08-16T12:54:37.719Z,100939.25
2022-08-16T12:57:20.013Z,100930.63
2022-08-16T12:59:52.724Z,100947.47
2022-08-16T13:02:44.271Z,100938.84
2022-08-16T13:05:19.650Z,100944.38
2022-08-16T13:08:05.476Z,100928.81
2022-08-16T13:10:40.793Z,100958.91
2022-08-16T13:13:29.503Z,100961.50
2022-08-16T13:16:15.121Z,100953.94
2022-08-16T13:18:57.622Z,100951.84
2022-08-16T13:21:35.520Z,100953.78
2022-08-16T13:24:20.900Z,100950.38
2022-08-16T13:27:17.483Z,100963.78
2022-08-16T13:32:58.754Z,100961.66
2022-08-16T13:35:35.723Z,100953.25
2022-08-16T13:38:25.204Z,100960.28
2022-08-16T13:40:58.097Z,100955.09
2022-08-16T13:43:34.325Z,100961.31
2022-08-16T13:46:17.759Z,100960.97
2022-08-16T13:48:48.518Z,100954.53
2022-08-16T13:51:29.184Z,100960.50
2022-08-16T13:54:09.227Z,100955.75
2022-08-16T13:56:40.901Z,100954.94
2022-08-16T13:59:20.394Z,100954.66
2022-08-16T14:02:11.385Z,100955.66
2022-08-16T14:04:44.406Z,100958.72
2022-08-16T14:07:20.168Z,100960.22
2022-08-16T14:09:55.073Z,100957.69
2022-08-16T14:12:39.117Z,100958.91
2022-08-16T14:15:32.113Z,100965.50
2022-08-16T14:18:20.354Z,100963.06
2022-08-16T14:20:51.295Z,100960.19
2022-08-16T14:23:38.280Z,100963.53
2022-08-16T14:26:12.916Z,100951.88
2022-08-16T14:29:03.487Z,100950.66
2022-08-16T14:34:44.722Z,100964.31
2022-08-16T14:37:18.496Z,100965.72
2022-08-16T14:42:46.515Z,100955.09
2022-08-16T14:48:28.485Z,100959.81
2022-08-16T14:51:00.711Z,100967.44
2022-08-16T14:56:42.537Z,100972.75
2022-08-16T15:02:05.158Z,100977.63
2022-08-16T15:04:40.352Z,100973.53
2022-08-16T15:07:22.775Z,100970.50
2022-08-16T15:10:00.451Z,100974.75
2022-08-16T15:12:36.639Z,100967.91
2022-08-16T15:15:16.442Z,100970.34
2022-08-16T15:17:53.864Z,100973.56
2022-08-16T15:23:29.550Z,100966.06
2022-08-16T15:26:02.777Z,100974.94
2022-08-16T15:28:47.181Z,100978.38
2022-08-16T16:34:26.564Z,100991.91
2022-08-16T16:52:14.320Z,101012.50
2022-08-16T16:55:16.485Z,101023.97
2022-08-16T16:58:03.486Z,101009.75
2022-08-16T17:00:37.664Z,101022.91
2022-08-16T17:03:17.092Z,101025.72
2022-08-16T17:05:56.978Z,101024.81
2022-08-16T17:08:40.627Z,101029.16
2022-08-16T17:11:22.382Z,101037.53
2022-08-16T17:13:52.354Z,101029.59
2022-08-16T17:16:23.482Z,101031.59
2022-08-16T17:25:14.739Z,101039.50
2022-08-16T17:27:50.725Z,101032.06
2022-08-16T17:30:45.332Z,101022.31
2022-08-16T17:33:16.123Z,101018.03
2022-08-16T17:35:55.231Z,101017.00
2022-08-16T17:38:33.093Z,101023.16
2022-08-16T17:39:28.037Z,101026.50
2022-08-16T17:41:15.131Z,101029.56
2022-08-16T17:44:03.901Z,101032.09
2022-08-16T17:46:50.543Z,101036.53
2022-08-16T17:49:35.375Z,101027.56
2022-08-16T17:52:06.817Z,101022.09
2022-08-16T17:54:36.359Z,101029.91
2022-08-16T17:57:21.775Z,101032.47
2022-08-16T17:59:54.032Z,101028.41
2022-08-16T18:02:44.439Z,101033.22
2022-08-16T18:05:22.592Z,101031.50
2022-08-16T18:07:57.408Z,101035.75
2022-08-16T18:10:33.451Z,101032.53
2022-08-16T18:13:18.741Z,101041.41
2022-08-16T18:15:54.176Z,101035.66
2022-08-16T18:18:27.681Z,101049.16
2022-08-16T18:21:22.673Z,101045.81
2022-08-16T18:24:01.192Z,101035.09
2022-08-16T18:26:52.782Z,101040.34
2022-08-16T18:29:46.410Z,101043.09
2022-08-16T18:32:24.978Z,101042.22
2022-08-16T18:35:12.980Z,101048.56
2022-08-16T18:44:25.545Z,101056.06
2022-08-16T18:47:39.362Z,101061.31
2022-08-16T18:51:03.255Z,101058.22
2022-08-16T19:02:58.743Z,101060.56
2022-08-16T19:08:43.826Z,101056.75
2022-08-16T19:11:35.406Z,101054.50
2022-08-16T19:17:32.058Z,101066.25
2022-08-16T19:23:37.183Z,101065.69
2022-08-16T19:26:33.776Z,101077.16
2022-08-16T19:32:36.992Z,101091.75
2022-08-16T19:35:31.591Z,101104.75
2022-08-16T19:41:39.001Z,101094.31
2022-08-16T20:10:53.254Z,101131.19
2022-08-16T20:19:14.952Z,101122.97
2022-08-16T20:22:21.599Z,101134.50
2022-08-16T20:25:10.991Z,101139.13
2022-08-16T20:55:36.082Z,101148.28
2022-08-16T20:58:05.705Z,101153.25
2022-08-16T21:00:36.587Z,101144.06
2022-08-16T21:03:10.020Z,101145.16
2022-08-16T21:05:43.532Z,101154.97
2022-08-16T21:08:49.998Z,101159.06
2022-08-16T21:11:09.760Z,101157.97
2022-08-16T21:13:42.909Z,101161.09
2022-08-16T21:16:15.730Z,101159.81
2022-08-16T21:18:44.765Z,101165.94
2022-08-16T21:21:13.520Z,101165.59
2022-08-16T21:23:43.183Z,101160.47
2022-08-16T21:26:15.390Z,101177.97
2022-08-16T21:28:46.346Z,101164.22
2022-08-16T21:31:19.344Z,101176.47
2022-08-16T21:33:55.301Z,101170.63
2022-08-16T21:36:34.821Z,101180.06
2022-08-16T21:39:07.003Z,101179.72
2022-08-16T21:41:39.518Z,101184.13
2022-08-16T21:44:12.016Z,101186.56
2022-08-16T21:46:43.672Z,101181.97
2022-08-16T21:49:12.932Z,101175.97
2022-08-16T21:51:42.275Z,101180.75
2022-08-16T21:54:11.705Z,101189.66
2022-08-16T21:56:40.535Z,101180.78
2022-08-16T21:59:12.136Z,101177.53
2022-08-16T22:01:44.920Z,101185.25
2022-08-16T22:04:38.104Z,101185.25
2022-08-16T22:07:10.328Z,101181.28
2022-08-16T22:09:41.262Z,101182.16
2022-08-16T22:12:24.085Z,101181.13
2022-08-16T22:14:53.031Z,101181.09
2022-08-16T22:17:23.249Z,101178.34
2022-08-16T22:19:54.535Z,101174.25
2022-08-16T22:22:35.956Z,101182.69
2022-08-16T22:25:08.155Z,101187.31
2022-08-16T22:27:37.804Z,101189.19
2022-08-16T22:30:08.707Z,101183.50
2022-08-16T22:32:42.417Z,101183.84
2022-08-16T22:35:14.479Z,101178.38
2022-08-16T22:38:43.944Z,101178.53
2022-08-16T22:40:35.390Z,101173.91
2022-08-16T22:43:05.077Z,101181.44
2022-08-16T22:45:34.500Z,101178.00
2022-08-16T22:48:06.491Z,101181.06
2022-08-16T22:50:38.065Z,101183.13
2022-08-16T22:53:11.257Z,101184.47
2022-08-16T22:55:57.282Z,101184.59
2022-08-16T22:58:34.141Z,101183.41
2022-08-16T23:01:06.534Z,101181.69
2022-08-16T23:03:38.255Z,101180.16
2022-08-16T23:06:09.371Z,101173.63
2022-08-16T23:08:41.584Z,101174.16
2022-08-16T23:11:14.242Z,101180.94
2022-08-16T23:13:53.266Z,101165.56
2022-08-16T23:16:32.549Z,101166.69
2022-08-16T23:19:07.203Z,101148.22
2022-08-16T23:21:38.275Z,101154.53
2022-08-16T23:24:10.516Z,101157.25
2022-08-16T23:26:47.539Z,101158.44
2022-08-16T23:29:24.303Z,101155.69
2022-08-16T23:32:00.849Z,101150.91
2022-08-16T23:34:31.678Z,101149.69
2022-08-16T23:37:00.258Z,101155.47
2022-08-16T23:39:29.473Z,101144.88
2022-08-16T23:42:02.171Z,101146.41
2022-08-16T23:44:57.077Z,101143.50
2022-08-16T23:47:24.387Z,101147.44
2022-08-16T23:50:00.428Z,101138.69
2022-08-16T23:52:45.192Z,101144.50
2022-08-16T23:55:22.093Z,101143.94
2022-08-16T23:57:50.850Z,101137.72
